sensor_id;sensor_type;location;lat;lon;timestamp;P1;durP1;ratioP1;P2;durP2;ratioP2
4428;SDS011;2227;47.810;8.810;2022-07-09T04:34:12;5.57;;;5.07;;
4428;SDS011;2227;47.810;8.810;2022-07-09T04:36:38;6.22;;;4.05;;
4428;SDS011;2227;47.810;8.810;2022-07-09T04:39:05;10.13;;;9.13;;
4428;SDS011;2227;47.810;8.810;2022-07-09T04:41:32;23.65;;;21.95;;
4428;SDS011;2227;47.810;8.810;2022-07-09T04:44:00;8.07;;;5.97;;
4428;SDS011;2227;47.810;8.810;2022-07-09T04:46:27;6.28;;;3.88;;
4428;SDS011;2227;47.810;8.810;2022-07-09T04:48:57;5.03;;;2.78;;
4428;SDS011;2227;47.810;8.810;2022-07-09T04:51:23;4.22;;;2.53;;
4428;SDS011;2227;47.810;8.810;2022-07-09T04:53:50;3.53;;;2.47;;
4428;SDS011;2227;47.810;8.810;2022-07-09T04:56:17;6.10;;;2.42;;
4428;SDS011;2227;47.810;8.810;2022-07-09T04:58:43;6.22;;;3.15;;
4428;SDS011;2227;47.810;8.810;2022-07-09T05:01:20;6.63;;;2.30;;
4428;SDS011;2227;47.810;8.810;2022-07-09T05:03:48;4.30;;;2.78;;
4428;SDS011;2227;47.810;8.810;2022-07-09T05:06:16;5.55;;;2.88;;
4428;SDS011;2227;47.810;8.810;2022-07-09T05:08:43;5.57;;;2.50;;
4428;SDS011;2227;47.810;8.810;2022-07-09T05:11:10;5.43;;;2.53;;
4428;SDS011;2227;47.810;8.810;2022-07-09T05:13:43;4.22;;;1.80;;
4428;SDS011;2227;47.810;8.810;2022-07-09T05:16:11;3.85;;;1.90;;
4428;SDS011;2227;47.810;8.810;2022-07-09T05:18:38;5.45;;;2.42;;
4428;SDS011;2227;47.810;8.810;2022-07-09T05:21:05;3.38;;;1.90;;
4428;SDS011;2227;47.810;8.810;2022-07-09T05:23:33;4.22;;;2.22;;
4428;SDS011;2227;47.810;8.810;2022-07-09T05:26:00;5.90;;;3.05;;
4428;SDS011;2227;47.810;8.810;2022-07-09T05:28:27;4.72;;;2.50;;
4428;SDS011;2227;47.810;8.810;2022-07-09T05:30:53;4.13;;;2.00;;
4428;SDS011;2227;47.810;8.810;2022-07-09T05:33:40;3.03;;;1.67;;
4428;SDS011;2227;47.810;8.810;2022-07-09T05:36:07;4.43;;;1.80;;
4428;SDS011;2227;47.810;8.810;2022-07-09T05:38:34;3.47;;;1.50;;
4428;SDS011;2227;47.810;8.810;2022-07-09T05:41:01;5.32;;;2.10;;
4428;SDS011;2227;47.810;8.810;2022-07-09T05:43:28;3.85;;;1.52;;
4428;SDS011;2227;47.810;8.810;2022-07-09T05:45:55;3.80;;;1.73;;
4428;SDS011;2227;47.810;8.810;2022-07-09T05:48:22;3.00;;;1.63;;
4428;SDS011;2227;47.810;8.810;2022-07-09T05:50:49;4.20;;;1.50;;
4428;SDS011;2227;47.810;8.810;2022-07-09T05:53:16;3.17;;;1.55;;
4428;SDS011;2227;47.810;8.810;2022-07-09T05:55:43;3.80;;;1.63;;
4428;SDS011;2227;47.810;8.810;2022-07-09T05:58:10;3.40;;;1.75;;
4428;SDS011;2227;47.810;8.810;2022-07-09T06:00:37;4.53;;;1.83;;
4428;SDS011;2227;47.810;8.810;2022-07-09T06:03:04;3.88;;;1.50;;
4428;SDS011;2227;47.810;8.810;2022-07-09T06:05:30;2.78;;;1.35;;
4428;SDS011;2227;47.810;8.810;2022-07-09T06:07:57;3.35;;;1.55;;
4428;SDS011;2227;47.810;8.810;2022-07-09T06:10:24;5.05;;;1.90;;
4428;SDS011;2227;47.810;8.810;2022-07-09T06:12:51;6.35;;;2.28;;
4428;SDS011;2227;47.810;8.810;2022-07-09T06:15:17;3.88;;;1.65;;
4428;SDS011;2227;47.810;8.810;2022-07-09T06:17:44;4.53;;;1.70;;
4428;SDS011;2227;47.810;8.810;2022-07-09T06:20:11;4.65;;;1.75;;
4428;SDS011;2227;47.810;8.810;2022-07-09T06:22:38;2.22;;;1.23;;
4428;SDS011;2227;47.810;8.810;2022-07-09T06:25:05;6.68;;;1.95;;
4428;SDS011;2227;47.810;8.810;2022-07-09T06:27:32;5.30;;;1.90;;
4428;SDS011;2227;47.810;8.810;2022-07-09T06:29:59;2.83;;;1.50;;
4428;SDS011;2227;47.810;8.810;2022-07-09T06:32:26;2.50;;;1.50;;
4428;SDS011;2227;47.810;8.810;2022-07-09T06:34:53;5.80;;;1.48;;
4428;SDS011;2227;47.810;8.810;2022-07-09T06:37:20;2.83;;;1.42;;
4428;SDS011;2227;47.810;8.810;2022-07-09T06:39:46;4.68;;;1.63;;
4428;SDS011;2227;47.810;8.810;2022-07-09T06:42:15;2.78;;;1.48;;
4428;SDS011;2227;47.810;8.810;2022-07-09T06:44:43;4.97;;;2.10;;
4428;SDS011;2227;47.810;8.810;2022-07-09T06:47:10;2.92;;;1.27;;
4428;SDS011;2227;47.810;8.810;2022-07-09T06:49:38;4.65;;;1.98;;
4428;SDS011;2227;47.810;8.810;2022-07-09T06:52:05;3.97;;;1.75;;
4428;SDS011;2227;47.810;8.810;2022-07-09T06:54:33;3.20;;;1.48;;
4428;SDS011;2227;47.810;8.810;2022-07-09T06:57:02;4.03;;;1.70;;
4428;SDS011;2227;47.810;8.810;2022-07-09T06:59:32;4.35;;;1.90;;
4428;SDS011;2227;47.810;8.810;2022-07-09T07:01:59;4.38;;;1.70;;
4428;SDS011;2227;47.810;8.810;2022-07-09T07:04:26;4.68;;;1.67;;
4428;SDS011;2227;47.810;8.810;2022-07-09T07:06:53;4.40;;;2.10;;
4428;SDS011;2227;47.810;8.810;2022-07-09T07:09:20;4.13;;;1.70;;
4428;SDS011;2227;47.810;8.810;2022-07-09T07:11:49;4.75;;;1.80;;
4428;SDS011;2227;47.810;8.810;2022-07-09T07:14:16;3.65;;;1.58;;
4428;SDS011;2227;47.810;8.810;2022-07-09T07:16:44;6.25;;;1.70;;
4428;SDS011;2227;47.810;8.810;2022-07-09T07:19:11;4.78;;;1.50;;
4428;SDS011;2227;47.810;8.810;2022-07-09T07:21:38;3.00;;;1.50;;
4428;SDS011;2227;47.810;8.810;2022-07-09T07:24:05;4.22;;;1.83;;
4428;SDS011;2227;47.810;8.810;2022-07-09T07:26:33;2.78;;;1.58;;
4428;SDS011;2227;47.810;8.810;2022-07-09T07:29:00;4.65;;;1.80;;
4428;SDS011;2227;47.810;8.810;2022-07-09T07:31:27;5.57;;;2.00;;
4428;SDS011;2227;47.810;8.810;2022-07-09T07:33:54;2.55;;;1.25;;
4428;SDS011;2227;47.810;8.810;2022-07-09T07:36:21;3.35;;;1.40;;
4428;SDS011;2227;47.810;8.810;2022-07-09T07:38:47;2.45;;;1.20;;
4428;SDS011;2227;47.810;8.810;2022-07-09T07:41:15;2.90;;;1.30;;
4428;SDS011;2227;47.810;8.810;2022-07-09T07:43:43;3.95;;;1.52;;
4428;SDS011;2227;47.810;8.810;2022-07-09T07:46:10;4.90;;;1.33;;
4428;SDS011;2227;47.810;8.810;2022-07-09T07:48:37;3.20;;;1.30;;
4428;SDS011;2227;47.810;8.810;2022-07-09T07:51:04;1.85;;;1.10;;
4428;SDS011;2227;47.810;8.810;2022-07-09T07:53:31;2.58;;;1.13;;
4428;SDS011;2227;47.810;8.810;2022-07-09T07:55:59;3.45;;;1.50;;
4428;SDS011;2227;47.810;8.810;2022-07-09T07:58:27;5.38;;;3.00;;
4428;SDS011;2227;47.810;8.810;2022-07-09T08:00:54;3.67;;;1.60;;
4428;SDS011;2227;47.810;8.810;2022-07-09T08:03:20;4.63;;;1.50;;
4428;SDS011;2227;47.810;8.810;2022-07-09T08:05:53;2.30;;;1.17;;
4428;SDS011;2227;47.810;8.810;2022-07-09T08:08:20;2.70;;;1.00;;
4428;SDS011;2227;47.810;8.810;2022-07-09T08:10:47;2.53;;;1.17;;
4428;SDS011;2227;47.810;8.810;2022-07-09T08:13:15;2.40;;;1.15;;
4428;SDS011;2227;47.810;8.810;2022-07-09T08:15:42;4.78;;;1.30;;
4428;SDS011;2227;47.810;8.810;2022-07-09T08:18:09;3.60;;;1.65;;
4428;SDS011;2227;47.810;8.810;2022-07-09T08:20:39;2.55;;;1.10;;
4428;SDS011;2227;47.810;8.810;2022-07-09T08:23:06;5.50;;;1.20;;
4428;SDS011;2227;47.810;8.810;2022-07-09T08:25:33;3.13;;;1.30;;
4428;SDS011;2227;47.810;8.810;2022-07-09T08:28:00;2.78;;;1.02;;
4428;SDS011;2227;47.810;8.810;2022-07-09T08:30:27;3.70;;;1.20;;
4428;SDS011;2227;47.810;8.810;2022-07-09T08:32:54;2.38;;;1.23;;
4428;SDS011;2227;47.810;8.810;2022-07-09T08:35:21;1.77;;;1.00;;
4428;SDS011;2227;47.810;8.810;2022-07-09T08:37:48;5.68;;;1.48;;
4428;SDS011;2227;47.810;8.810;2022-07-09T08:40:14;2.72;;;1.20;;
4428;SDS011;2227;47.810;8.810;2022-07-09T08:42:41;3.80;;;1.00;;
4428;SDS011;2227;47.810;8.810;2022-07-09T08:45:10;3.00;;;1.20;;
4428;SDS011;2227;47.810;8.810;2022-07-09T08:47:40;4.53;;;1.08;;
4428;SDS011;2227;47.810;8.810;2022-07-09T08:50:07;4.78;;;1.60;;
4428;SDS011;2227;47.810;8.810;2022-07-09T08:52:35;4.28;;;1.50;;
4428;SDS011;2227;47.810;8.810;2022-07-09T08:55:03;3.63;;;1.27;;
4428;SDS011;2227;47.810;8.810;2022-07-09T08:57:30;3.17;;;1.23;;
4428;SDS011;2227;47.810;8.810;2022-07-09T08:59:57;2.53;;;1.25;;
4428;SDS011;2227;47.810;8.810;2022-07-09T09:02:25;4.40;;;1.35;;
4428;SDS011;2227;47.810;8.810;2022-07-09T09:04:54;3.78;;;1.17;;
4428;SDS011;2227;47.810;8.810;2022-07-09T09:07:21;3.25;;;1.23;;
4428;SDS011;2227;47.810;8.810;2022-07-09T09:09:48;2.38;;;1.02;;
4428;SDS011;2227;47.810;8.810;2022-07-09T09:12:15;4.32;;;1.33;;
4428;SDS011;2227;47.810;8.810;2022-07-09T09:14:53;3.80;;;1.30;;
4428;SDS011;2227;47.810;8.810;2022-07-09T09:17:20;3.13;;;1.33;;
4428;SDS011;2227;47.810;8.810;2022-07-09T09:19:48;3.83;;;1.10;;
4428;SDS011;2227;47.810;8.810;2022-07-09T09:22:15;2.15;;;0.85;;
4428;SDS011;2227;47.810;8.810;2022-07-09T09:24:43;4.70;;;1.30;;
4428;SDS011;2227;47.810;8.810;2022-07-09T09:27:14;3.83;;;1.30;;
4428;SDS011;2227;47.810;8.810;2022-07-09T09:29:48;2.53;;;1.20;;
4428;SDS011;2227;47.810;8.810;2022-07-09T09:32:18;3.22;;;1.42;;
4428;SDS011;2227;47.810;8.810;2022-07-09T09:34:50;2.60;;;1.33;;
4428;SDS011;2227;47.810;8.810;2022-07-09T09:37:27;2.13;;;1.00;;
4428;SDS011;2227;47.810;8.810;2022-07-09T09:39:54;2.63;;;1.10;;
4428;SDS011;2227;47.810;8.810;2022-07-09T09:42:24;2.85;;;1.20;;
4428;SDS011;2227;47.810;8.810;2022-07-09T09:44:54;2.60;;;1.10;;
4428;SDS011;2227;47.810;8.810;2022-07-09T09:47:24;3.05;;;1.00;;
4428;SDS011;2227;47.810;8.810;2022-07-09T09:49:52;2.05;;;1.00;;
4428;SDS011;2227;47.810;8.810;2022-07-09T09:52:23;3.67;;;1.00;;
4428;SDS011;2227;47.810;8.810;2022-07-09T09:54:51;3.40;;;1.10;;
4428;SDS011;2227;47.810;8.810;2022-07-09T09:57:19;2.65;;;1.20;;
4428;SDS011;2227;47.810;8.810;2022-07-09T09:59:50;4.75;;;1.00;;
4428;SDS011;2227;47.810;8.810;2022-07-09T10:02:18;5.32;;;2.85;;
4428;SDS011;2227;47.810;8.810;2022-07-09T10:04:47;2.65;;;0.88;;
4428;SDS011;2227;47.810;8.810;2022-07-09T10:07:14;6.43;;;1.13;;
4428;SDS011;2227;47.810;8.810;2022-07-09T10:09:51;3.45;;;1.00;;
4428;SDS011;2227;47.810;8.810;2022-07-09T10:12:27;3.47;;;1.02;;
4428;SDS011;2227;47.810;8.810;2022-07-09T10:14:59;3.25;;;1.10;;
4428;SDS011;2227;47.810;8.810;2022-07-09T10:17:26;2.42;;;1.00;;
4428;SDS011;2227;47.810;8.810;2022-07-09T10:19:57;3.45;;;0.95;;
4428;SDS011;2227;47.810;8.810;2022-07-09T10:22:37;3.28;;;1.20;;
4428;SDS011;2227;47.810;8.810;2022-07-09T10:25:06;2.67;;;1.10;;
4428;SDS011;2227;47.810;8.810;2022-07-09T10:27:44;3.20;;;1.08;;
4428;SDS011;2227;47.810;8.810;2022-07-09T10:33:52;4.10;;;1.08;;
4428;SDS011;2227;47.810;8.810;2022-07-09T10:35:50;3.42;;;1.20;;
4428;SDS011;2227;47.810;8.810;2022-07-09T10:38:18;2.63;;;1.00;;
4428;SDS011;2227;47.810;8.810;2022-07-09T10:40:48;2.15;;;0.90;;
4428;SDS011;2227;47.810;8.810;2022-07-09T10:46:09;2.72;;;1.00;;
4428;SDS011;2227;47.810;8.810;2022-07-09T10:48:38;2.90;;;0.90;;
4428;SDS011;2227;47.810;8.810;2022-07-09T10:51:05;2.97;;;0.70;;
4428;SDS011;2227;47.810;8.810;2022-07-09T10:53:32;2.88;;;1.08;;
4428;SDS011;2227;47.810;8.810;2022-07-09T10:55:59;3.15;;;1.00;;
4428;SDS011;2227;47.810;8.810;2022-07-09T10:58:25;1.88;;;0.85;;
4428;SDS011;2227;47.810;8.810;2022-07-09T11:00:57;4.35;;;1.40;;
4428;SDS011;2227;47.810;8.810;2022-07-09T11:03:28;2.53;;;0.80;;
4428;SDS011;2227;47.810;8.810;2022-07-09T11:05:57;2.78;;;1.10;;
4428;SDS011;2227;47.810;8.810;2022-07-09T11:08:25;2.08;;;0.95;;
4428;SDS011;2227;47.810;8.810;2022-07-09T11:10:52;2.15;;;0.90;;
4428;SDS011;2227;47.810;8.810;2022-07-09T11:13:22;2.97;;;0.88;;
4428;SDS011;2227;47.810;8.810;2022-07-09T11:15:50;4.28;;;1.17;;
4428;SDS011;2227;47.810;8.810;2022-07-09T11:18:25;2.97;;;1.00;;
4428;SDS011;2227;47.810;8.810;2022-07-09T11:20:53;3.58;;;0.90;;
4428;SDS011;2227;47.810;8.810;2022-07-09T11:23:20;2.75;;;1.00;;
4428;SDS011;2227;47.810;8.810;2022-07-09T11:25:47;2.08;;;1.00;;
4428;SDS011;2227;47.810;8.810;2022-07-09T11:28:20;3.08;;;0.80;;
4428;SDS011;2227;47.810;8.810;2022-07-09T11:31:01;1.35;;;0.70;;
4428;SDS011;2227;47.810;8.810;2022-07-09T11:33:29;2.08;;;1.05;;
4428;SDS011;2227;47.810;8.810;2022-07-09T11:36:16;2.40;;;0.88;;
4428;SDS011;2227;47.810;8.810;2022-07-09T11:38:49;2.72;;;0.90;;
4428;SDS011;2227;47.810;8.810;2022-07-09T11:41:17;2.90;;;0.95;;
4428;SDS011;2227;47.810;8.810;2022-07-09T11:43:50;3.10;;;0.88;;
4428;SDS011;2227;47.810;8.810;2022-07-09T11:46:18;2.30;;;0.90;;
4428;SDS011;2227;47.810;8.810;2022-07-09T11:48:52;3.05;;;0.80;;
4428;SDS011;2227;47.810;8.810;2022-07-09T11:51:32;2.85;;;0.80;;
4428;SDS011;2227;47.810;8.810;2022-07-09T11:54:00;1.42;;;0.95;;
4428;SDS011;2227;47.810;8.810;2022-07-09T11:56:43;1.92;;;0.70;;
4428;SDS011;2227;47.810;8.810;2022-07-09T11:59:12;1.55;;;0.90;;
4428;SDS011;2227;47.810;8.810;2022-07-09T12:01:39;2.72;;;0.98;;
4428;SDS011;2227;47.810;8.810;2022-07-09T12:04:06;2.03;;;0.80;;
4428;SDS011;2227;47.810;8.810;2022-07-09T12:06:49;2.58;;;1.10;;
4428;SDS011;2227;47.810;8.810;2022-07-09T12:09:26;3.90;;;0.90;;
4428;SDS011;2227;47.810;8.810;2022-07-09T12:11:57;2.00;;;0.88;;
4428;SDS011;2227;47.810;8.810;2022-07-09T12:14:25;2.28;;;0.75;;
4428;SDS011;2227;47.810;8.810;2022-07-09T12:16:52;3.55;;;1.10;;
4428;SDS011;2227;47.810;8.810;2022-07-09T12:19:19;2.35;;;0.80;;
4428;SDS011;2227;47.810;8.810;2022-07-09T12:21:46;3.65;;;1.35;;
4428;SDS011;2227;47.810;8.810;2022-07-09T12:24:13;1.65;;;0.80;;
4428;SDS011;2227;47.810;8.810;2022-07-09T12:26:39;1.85;;;0.88;;
4428;SDS011;2227;47.810;8.810;2022-07-09T12:29:26;3.70;;;0.90;;
4428;SDS011;2227;47.810;8.810;2022-07-09T12:31:53;2.30;;;0.70;;
4428;SDS011;2227;47.810;8.810;2022-07-09T12:34:20;2.65;;;0.90;;
4428;SDS011;2227;47.810;8.810;2022-07-09T12:36:46;2.15;;;1.00;;
4428;SDS011;2227;47.810;8.810;2022-07-09T12:39:24;6.38;;;2.72;;
4428;SDS011;2227;47.810;8.810;2022-07-09T12:41:51;2.00;;;1.10;;
4428;SDS011;2227;47.810;8.810;2022-07-09T12:44:18;1.10;;;0.80;;
4428;SDS011;2227;47.810;8.810;2022-07-09T12:46:45;1.67;;;0.70;;
4428;SDS011;2227;47.810;8.810;2022-07-09T12:49:12;1.75;;;0.90;;
4428;SDS011;2227;47.810;8.810;2022-07-09T12:51:38;1.58;;;0.90;;
4428;SDS011;2227;47.810;8.810;2022-07-09T12:54:05;2.47;;;1.20;;
4428;SDS011;2227;47.810;8.810;2022-07-09T12:56:32;2.25;;;0.88;;
4428;SDS011;2227;47.810;8.810;2022-07-09T12:59:19;1.90;;;0.90;;
4428;SDS011;2227;47.810;8.810;2022-07-09T13:01:46;2.03;;;0.80;;
4428;SDS011;2227;47.810;8.810;2022-07-09T13:04:13;2.67;;;0.90;;
4428;SDS011;2227;47.810;8.810;2022-07-09T13:06:41;3.33;;;1.10;;
4428;SDS011;2227;47.810;8.810;2022-07-09T13:09:08;2.00;;;0.93;;
4428;SDS011;2227;47.810;8.810;2022-07-09T13:11:36;3.20;;;1.02;;
4428;SDS011;2227;47.810;8.810;2022-07-09T13:14:05;4.50;;;2.28;;
4428;SDS011;2227;47.810;8.810;2022-07-09T13:16:32;4.38;;;1.30;;
4428;SDS011;2227;47.810;8.810;2022-07-09T13:19:02;2.47;;;1.00;;
4428;SDS011;2227;47.810;8.810;2022-07-09T13:21:29;3.85;;;1.33;;
4428;SDS011;2227;47.810;8.810;2022-07-09T13:23:58;2.08;;;0.90;;
4428;SDS011;2227;47.810;8.810;2022-07-09T13:26:25;2.60;;;0.88;;
4428;SDS011;2227;47.810;8.810;2022-07-09T13:28:59;1.70;;;0.80;;
4428;SDS011;2227;47.810;8.810;2022-07-09T13:31:26;1.90;;;0.80;;
4428;SDS011;2227;47.810;8.810;2022-07-09T13:33:53;1.42;;;0.90;;
4428;SDS011;2227;47.810;8.810;2022-07-09T13:36:20;3.45;;;1.25;;
4428;SDS011;2227;47.810;8.810;2022-07-09T13:38:47;2.35;;;1.30;;
4428;SDS011;2227;47.810;8.810;2022-07-09T13:41:14;2.25;;;0.75;;
4428;SDS011;2227;47.810;8.810;2022-07-09T13:43:42;1.95;;;0.80;;
4428;SDS011;2227;47.810;8.810;2022-07-09T13:46:11;3.42;;;1.10;;
4428;SDS011;2227;47.810;8.810;2022-07-09T13:48:38;1.92;;;0.80;;
4428;SDS011;2227;47.810;8.810;2022-07-09T13:51:05;4.70;;;1.23;;
4428;SDS011;2227;47.810;8.810;2022-07-09T13:53:32;3.58;;;1.08;;
4428;SDS011;2227;47.810;8.810;2022-07-09T13:55:59;2.10;;;0.98;;
4428;SDS011;2227;47.810;8.810;2022-07-09T13:58:26;2.55;;;0.95;;
4428;SDS011;2227;47.810;8.810;2022-07-09T14:00:52;2.85;;;1.00;;
4428;SDS011;2227;47.810;8.810;2022-07-09T14:03:19;2.47;;;0.80;;
4428;SDS011;2227;47.810;8.810;2022-07-09T14:05:46;1.98;;;0.90;;
4428;SDS011;2227;47.810;8.810;2022-07-09T14:08:13;1.75;;;0.75;;
4428;SDS011;2227;47.810;8.810;2022-07-09T14:10:45;2.42;;;0.88;;
4428;SDS011;2227;47.810;8.810;2022-07-09T14:13:12;1.55;;;0.80;;
4428;SDS011;2227;47.810;8.810;2022-07-09T14:15:39;2.08;;;1.17;;
4428;SDS011;2227;47.810;8.810;2022-07-09T14:18:06;1.63;;;0.90;;
4428;SDS011;2227;47.810;8.810;2022-07-09T14:20:33;2.33;;;0.80;;
4428;SDS011;2227;47.810;8.810;2022-07-09T14:23:00;3.00;;;0.95;;
4428;SDS011;2227;47.810;8.810;2022-07-09T14:25:27;1.52;;;0.68;;
4428;SDS011;2227;47.810;8.810;2022-07-09T14:27:53;3.03;;;0.80;;
4428;SDS011;2227;47.810;8.810;2022-07-09T14:30:20;2.17;;;0.88;;
4428;SDS011;2227;47.810;8.810;2022-07-09T14:32:47;1.63;;;0.77;;
4428;SDS011;2227;47.810;8.810;2022-07-09T14:35:14;3.30;;;1.13;;
4428;SDS011;2227;47.810;8.810;2022-07-09T14:37:41;4.13;;;1.35;;
4428;SDS011;2227;47.810;8.810;2022-07-09T14:40:08;5.35;;;1.83;;
4428;SDS011;2227;47.810;8.810;2022-07-09T14:42:35;1.92;;;0.90;;
4428;SDS011;2227;47.810;8.810;2022-07-09T14:45:02;2.17;;;1.00;;
4428;SDS011;2227;47.810;8.810;2022-07-09T14:47:30;3.40;;;1.27;;
4428;SDS011;2227;47.810;8.810;2022-07-09T14:49:56;3.08;;;1.00;;
4428;SDS011;2227;47.810;8.810;2022-07-09T14:52:23;2.78;;;0.90;;
4428;SDS011;2227;47.810;8.810;2022-07-09T14:54:50;1.88;;;0.85;;
4428;SDS011;2227;47.810;8.810;2022-07-09T14:57:16;1.35;;;0.90;;
4428;SDS011;2227;47.810;8.810;2022-07-09T14:59:43;1.90;;;0.65;;
4428;SDS011;2227;47.810;8.810;2022-07-09T15:02:10;1.90;;;0.90;;
4428;SDS011;2227;47.810;8.810;2022-07-09T15:04:38;1.98;;;0.90;;
4428;SDS011;2227;47.810;8.810;2022-07-09T15:07:05;1.83;;;0.95;;
4428;SDS011;2227;47.810;8.810;2022-07-09T15:09:32;2.88;;;0.82;;
4428;SDS011;2227;47.810;8.810;2022-07-09T15:11:59;1.45;;;0.90;;
4428;SDS011;2227;47.810;8.810;2022-07-09T15:14:26;2.10;;;0.77;;
4428;SDS011;2227;47.810;8.810;2022-07-09T15:16:52;2.42;;;1.20;;
4428;SDS011;2227;47.810;8.810;2022-07-09T15:19:19;2.80;;;1.10;;
4428;SDS011;2227;47.810;8.810;2022-07-09T15:21:46;2.95;;;1.15;;
4428;SDS011;2227;47.810;8.810;2022-07-09T15:24:13;1.33;;;0.90;;
4428;SDS011;2227;47.810;8.810;2022-07-09T15:26:40;2.15;;;1.13;;
4428;SDS011;2227;47.810;8.810;2022-07-09T15:29:07;3.42;;;1.42;;
4428;SDS011;2227;47.810;8.810;2022-07-09T15:31:33;5.18;;;2.33;;
4428;SDS011;2227;47.810;8.810;2022-07-09T15:34:00;4.00;;;1.50;;
4428;SDS011;2227;47.810;8.810;2022-07-09T15:36:27;3.10;;;1.20;;
4428;SDS011;2227;47.810;8.810;2022-07-09T15:38:54;2.25;;;0.90;;
4428;SDS011;2227;47.810;8.810;2022-07-09T15:41:20;2.05;;;0.90;;
4428;SDS011;2227;47.810;8.810;2022-07-09T15:43:47;3.08;;;1.00;;
4428;SDS011;2227;47.810;8.810;2022-07-09T15:46:14;2.65;;;0.80;;
4428;SDS011;2227;47.810;8.810;2022-07-09T15:48:41;3.28;;;1.00;;
4428;SDS011;2227;47.810;8.810;2022-07-09T15:51:08;4.63;;;1.55;;
4428;SDS011;2227;47.810;8.810;2022-07-09T15:53:34;2.22;;;0.90;;
4428;SDS011;2227;47.810;8.810;2022-07-09T15:56:02;2.85;;;1.05;;
4428;SDS011;2227;47.810;8.810;2022-07-09T15:58:29;1.50;;;0.98;;
4428;SDS011;2227;47.810;8.810;2022-07-09T16:00:56;3.30;;;1.05;;
4428;SDS011;2227;47.810;8.810;2022-07-09T16:03:23;2.95;;;1.00;;
4428;SDS011;2227;47.810;8.810;2022-07-09T16:05:50;2.17;;;1.00;;
4428;SDS011;2227;47.810;8.810;2022-07-09T16:08:16;3.53;;;0.90;;
4428;SDS011;2227;47.810;8.810;2022-07-09T16:10:43;1.50;;;0.90;;
4428;SDS011;2227;47.810;8.810;2022-07-09T16:13:10;2.38;;;0.90;;
4428;SDS011;2227;47.810;8.810;2022-07-09T16:15:37;2.60;;;1.20;;
4428;SDS011;2227;47.810;8.810;2022-07-09T16:18:04;2.33;;;1.05;;
4428;SDS011;2227;47.810;8.810;2022-07-09T16:20:31;3.53;;;1.30;;
4428;SDS011;2227;47.810;8.810;2022-07-09T16:22:57;2.78;;;1.30;;
4428;SDS011;2227;47.810;8.810;2022-07-09T16:25:24;3.13;;;1.35;;
4428;SDS011;2227;47.810;8.810;2022-07-09T16:27:51;2.17;;;1.30;;
4428;SDS011;2227;47.810;8.810;2022-07-09T16:30:18;1.73;;;0.98;;
4428;SDS011;2227;47.810;8.810;2022-07-09T16:32:45;1.63;;;1.20;;
4428;SDS011;2227;47.810;8.810;2022-07-09T16:35:11;2.88;;;1.33;;
4428;SDS011;2227;47.810;8.810;2022-07-09T16:37:39;3.75;;;1.10;;
4428;SDS011;2227;47.810;8.810;2022-07-09T16:40:07;3.40;;;1.65;;
4428;SDS011;2227;47.810;8.810;2022-07-09T16:42:34;7.20;;;4.50;;
4428;SDS011;2227;47.810;8.810;2022-07-09T16:45:01;6.38;;;3.83;;
4428;SDS011;2227;47.810;8.810;2022-07-09T16:47:28;3.60;;;1.20;;
4428;SDS011;2227;47.810;8.810;2022-07-09T16:49:55;3.20;;;1.83;;
4428;SDS011;2227;47.810;8.810;2022-07-09T16:52:32;3.15;;;2.00;;
4428;SDS011;2227;47.810;8.810;2022-07-09T16:54:59;4.03;;;1.20;;
4428;SDS011;2227;47.810;8.810;2022-07-09T16:57:25;3.92;;;2.70;;
4428;SDS011;2227;47.810;8.810;2022-07-09T16:59:54;7.22;;;5.07;;
4428;SDS011;2227;47.810;8.810;2022-07-09T17:02:39;6.80;;;4.72;;
4428;SDS011;2227;47.810;8.810;2022-07-09T17:05:08;4.72;;;2.20;;
4428;SDS011;2227;47.810;8.810;2022-07-09T17:07:36;2.15;;;1.02;;
4428;SDS011;2227;47.810;8.810;2022-07-09T17:10:03;3.33;;;1.42;;
4428;SDS011;2227;47.810;8.810;2022-07-09T17:12:33;5.88;;;4.57;;
4428;SDS011;2227;47.810;8.810;2022-07-09T17:15:03;2.08;;;1.55;;
4428;SDS011;2227;47.810;8.810;2022-07-09T17:17:31;2.40;;;1.15;;
4428;SDS011;2227;47.810;8.810;2022-07-09T17:19:58;8.00;;;4.82;;
4428;SDS011;2227;47.810;8.810;2022-07-09T17:22:24;3.22;;;1.95;;
4428;SDS011;2227;47.810;8.810;2022-07-09T17:24:51;3.10;;;1.05;;
4428;SDS011;2227;47.810;8.810;2022-07-09T17:27:18;2.17;;;1.30;;
4428;SDS011;2227;47.810;8.810;2022-07-09T17:29:45;2.60;;;1.30;;
4428;SDS011;2227;47.810;8.810;2022-07-09T17:32:15;3.58;;;1.15;;
4428;SDS011;2227;47.810;8.810;2022-07-09T17:34:43;2.55;;;1.20;;
4428;SDS011;2227;47.810;8.810;2022-07-09T17:37:09;4.22;;;1.27;;
4428;SDS011;2227;47.810;8.810;2022-07-09T17:39:36;3.95;;;1.60;;
4428;SDS011;2227;47.810;8.810;2022-07-09T17:42:03;2.58;;;1.48;;
4428;SDS011;2227;47.810;8.810;2022-07-09T17:44:30;3.80;;;1.20;;
4428;SDS011;2227;47.810;8.810;2022-07-09T17:46:57;2.83;;;1.17;;
4428;SDS011;2227;47.810;8.810;2022-07-09T17:49:24;8.93;;;6.15;;
4428;SDS011;2227;47.810;8.810;2022-07-09T17:51:51;7.13;;;5.03;;
4428;SDS011;2227;47.810;8.810;2022-07-09T17:54:17;6.75;;;4.72;;
4428;SDS011;2227;47.810;8.810;2022-07-09T17:56:44;5.13;;;2.83;;
4428;SDS011;2227;47.810;8.810;2022-07-09T17:59:11;3.22;;;1.50;;
4428;SDS011;2227;47.810;8.810;2022-07-09T18:01:38;2.92;;;1.17;;
4428;SDS011;2227;47.810;8.810;2022-07-09T18:04:05;3.22;;;1.30;;
4428;SDS011;2227;47.810;8.810;2022-07-09T18:06:32;4.65;;;1.25;;
4428;SDS011;2227;47.810;8.810;2022-07-09T18:08:58;1.08;;;0.80;;
4428;SDS011;2227;47.810;8.810;2022-07-09T18:11:25;3.45;;;1.25;;
4428;SDS011;2227;47.810;8.810;2022-07-09T18:13:52;1.95;;;0.90;;
4428;SDS011;2227;47.810;8.810;2022-07-09T18:16:19;2.25;;;0.90;;
4428;SDS011;2227;47.810;8.810;2022-07-09T18:18:46;2.45;;;1.20;;
4428;SDS011;2227;47.810;8.810;2022-07-09T18:21:13;3.22;;;1.13;;
4428;SDS011;2227;47.810;8.810;2022-07-09T18:23:40;2.78;;;1.00;;
4428;SDS011;2227;47.810;8.810;2022-07-09T18:26:07;2.92;;;1.17;;
4428;SDS011;2227;47.810;8.810;2022-07-09T18:28:34;2.88;;;1.33;;
4428;SDS011;2227;47.810;8.810;2022-07-09T18:31:01;3.08;;;1.42;;
4428;SDS011;2227;47.810;8.810;2022-07-09T18:33:28;4.63;;;2.40;;
4428;SDS011;2227;47.810;8.810;2022-07-09T18:35:55;5.22;;;3.50;;
4428;SDS011;2227;47.810;8.810;2022-07-09T18:40:55;3.22;;;1.98;;
4428;SDS011;2227;47.810;8.810;2022-07-09T18:43:22;3.53;;;1.90;;
4428;SDS011;2227;47.810;8.810;2022-07-09T18:45:49;3.50;;;1.90;;
4428;SDS011;2227;47.810;8.810;2022-07-09T18:48:15;3.75;;;2.08;;
4428;SDS011;2227;47.810;8.810;2022-07-09T18:50:42;5.53;;;2.42;;
4428;SDS011;2227;47.810;8.810;2022-07-09T18:53:09;3.97;;;1.83;;
4428;SDS011;2227;47.810;8.810;2022-07-09T18:55:36;4.40;;;2.17;;
4428;SDS011;2227;47.810;8.810;2022-07-09T18:58:03;5.70;;;2.80;;
4428;SDS011;2227;47.810;8.810;2022-07-09T19:00:30;5.18;;;2.67;;
4428;SDS011;2227;47.810;8.810;2022-07-09T19:02:58;3.85;;;1.70;;
4428;SDS011;2227;47.810;8.810;2022-07-09T19:05:25;3.03;;;1.60;;
4428;SDS011;2227;47.810;8.810;2022-07-09T19:07:52;3.53;;;2.20;;
4428;SDS011;2227;47.810;8.810;2022-07-09T19:10:19;5.93;;;4.55;;
4428;SDS011;2227;47.810;8.810;2022-07-09T19:12:46;5.75;;;3.90;;
4428;SDS011;2227;47.810;8.810;2022-07-09T19:15:13;14.40;;;12.05;;
4428;SDS011;2227;47.810;8.810;2022-07-09T19:17:40;11.27;;;10.10;;
4428;SDS011;2227;47.810;8.810;2022-07-09T19:20:07;8.18;;;6.57;;
4428;SDS011;2227;47.810;8.810;2022-07-09T19:22:34;6.97;;;3.63;;
4428;SDS011;2227;47.810;8.810;2022-07-09T19:25:03;9.40;;;7.07;;
4428;SDS011;2227;47.810;8.810;2022-07-09T19:27:30;8.77;;;6.78;;
4428;SDS011;2227;47.810;8.810;2022-07-09T19:29:58;10.50;;;7.32;;
4428;SDS011;2227;47.810;8.810;2022-07-09T19:32:25;8.15;;;5.25;;
4428;SDS011;2227;47.810;8.810;2022-07-09T19:35:10;5.97;;;3.60;;
4428;SDS011;2227;47.810;8.810;2022-07-09T19:37:37;12.70;;;10.38;;
4428;SDS011;2227;47.810;8.810;2022-07-09T19:40:04;7.50;;;4.30;;
4428;SDS011;2227;47.810;8.810;2022-07-09T19:42:31;7.03;;;3.80;;
4428;SDS011;2227;47.810;8.810;2022-07-09T19:45:04;5.40;;;2.53;;
4428;SDS011;2227;47.810;8.810;2022-07-09T19:47:32;4.85;;;2.45;;
4428;SDS011;2227;47.810;8.810;2022-07-09T19:49:59;6.97;;;4.35;;
4428;SDS011;2227;47.810;8.810;2022-07-09T19:52:25;8.10;;;4.90;;
4428;SDS011;2227;47.810;8.810;2022-07-09T19:54:53;10.27;;;5.22;;
4428;SDS011;2227;47.810;8.810;2022-07-09T19:57:20;10.05;;;6.78;;
4428;SDS011;2227;47.810;8.810;2022-07-09T19:59:46;13.50;;;8.40;;
4428;SDS011;2227;47.810;8.810;2022-07-09T20:02:13;16.45;;;11.07;;